Amherst, Nebraska
Current Conditions -  °F | °C
As of 9:35 AM on Thursday 18 Dec 2014 (Local Time) from KEAR Reporting Station
Overcast Overcast  
Wind Chill: 18°   Ceiling: 600
Heat Index: 25°   Visibility: 5mi
Dew Point: 21°   Wind: 6mph
Humidity: 86%   Direction: 150°SSE
Pressure: 30.17"   Gusts: NA
Location:  40.77°N, 99.27°W
Report Text: KEAR 181535Z 15005KT 5SM BKN006 OVC016 M04/M06 A3017 RMK AO1
Loading
Personal Weather Stations






























Interactive Weather Map New forecast layout! Learn more

10-Day Weather Forecast

Advertisements
Track Severe Weather on mobile